Time;durP1;ratioP1;P1;durP2;ratioP2;P2;SDS_P1;SDS_P2;PMS_P1;PMS_P2;Temp;Humidity;BMP_temperature;BMP_pressure;BME280_temperature;BME280_humidity;BME280_pressure;Samples;Min_cycle;Max_cycle;Signal;HPM_P1;HPM_P2
2020/12/28 00:01:56;;;;;;;3.33;1.20;;;;;;;5.93;100.00;92225.75;5114610;28;20092;-91
2020/12/28 00:04:22;;;;;;;0.80;0.40;;;;;;;5.97;100.00;92226.91;5114468;28;20047;-90
2020/12/28 00:06:49;;;;;;;;;;;;;;;5.95;100.00;92228.09;5114939;28;20043;-90
2020/12/28 00:09:16;;;;;;;1.92;0.60;;;;;;;5.93;100.00;92222.44;5114236;28;19919;-90
2020/12/28 00:11:42;;;;;;;3.15;1.00;;;;;;;5.96;100.00;92224.56;5114717;28;20043;-92
2020/12/28 00:14:08;;;;;;;;;;;;;;;5.91;100.00;92217.53;5114793;28;20043;-90
2020/12/28 00:16:34;;;;;;;0.93;0.70;;;;;;;5.88;100.00;92210.31;5114178;28;19931;-89
2020/12/28 00:19:00;;;;;;;;;;;;;;;5.82;100.00;92211.91;5115334;28;20066;-90
2020/12/28 00:21:27;;;;;;;0.40;0.32;;;;;;;5.82;100.00;92211.09;5114306;28;20298;-91
2020/12/28 00:23:53;;;;;;;0.80;0.52;;;;;;;5.73;100.00;92195.28;5114175;28;20050;-90
2020/12/28 00:26:20;;;;;;;;;;;;;;;5.80;100.00;92205.44;5114821;28;20047;-91
2020/12/28 00:28:46;;;;;;;1.65;0.50;;;;;;;5.79;100.00;92203.88;5113454;28;19923;-90
2020/12/28 00:31:13;;;;;;;;;;;;;;;5.74;100.00;92194.31;5114091;28;20052;-89
2020/12/28 00:33:39;;;;;;;0.95;0.43;;;;;;;5.68;100.00;92185.72;5114318;28;19926;-89
2020/12/28 00:36:05;;;;;;;1.42;0.65;;;;;;;5.72;100.00;92194.50;5114300;28;20054;-90
2020/12/28 00:38:32;;;;;;;0.98;0.60;;;;;;;5.78;100.00;92205.63;5113565;28;20108;-91
2020/12/28 00:40:58;;;;;;;1.27;0.47;;;;;;;5.75;100.00;92200.97;5113836;28;20054;-90
2020/12/28 00:43:25;;;;;;;;;;;;;;;5.80;100.00;92205.44;5114338;28;20052;-87
2020/12/28 00:45:51;;;;;;;3.65;1.02;;;;;;;5.77;100.00;92205.84;5114061;28;19923;-90
2020/12/28 00:48:17;;;;;;;;;;;;;;;5.82;100.00;92201.72;5114119;28;20383;-93
2020/12/28 00:50:44;;;;;;;0.90;0.52;;;;;;;5.83;100.00;92197.41;5113861;28;19965;-90
2020/12/28 00:53:10;;;;;;;1.98;0.50;;;;;;;5.86;100.00;92202.06;5113499;28;20046;-90
2020/12/28 00:55:36;;;;;;;0.90;0.52;;;;;;;5.88;100.00;92202.66;5113630;28;20512;-91
2020/12/28 00:58:02;;;;;;;;;;;;;;;5.88;100.00;92203.44;5114130;28;20058;-87
2020/12/28 01:00:29;;;;;;;4.18;1.02;;;;;;;5.82;100.00;92194.06;5113716;28;19923;-90
2020/12/28 01:02:55;;;;;;;1.15;0.65;;;;;;;5.79;100.00;92194.47;5113717;28;20043;-89
2020/12/28 01:05:21;;;;;;;;;;;;;;;5.82;100.00;92185.63;5114290;28;20406;-87
2020/12/28 01:07:48;;;;;;;1.25;0.55;;;;;;;5.74;100.00;92191.78;5113206;28;20415;-91
2020/12/28 01:10:14;;;;;;;;;;;;;;;5.75;100.00;92190.78;5114037;28;20043;-90
2020/12/28 01:12:40;;;;;;;2.00;0.93;;;;;;;5.48;100.00;92156.00;5113209;28;20408;-89
2020/12/28 01:15:06;;;;;;;;;;;;;;;5.70;100.00;92183.72;5114227;28;20052;-89
2020/12/28 01:17:33;;;;;;;0.55;0.30;;;;;;;5.73;100.00;92187.63;5113494;28;19927;-91
2020/12/28 01:20:00;;;;;;;1.10;0.80;;;;;;;5.76;100.00;92189.78;5113735;28;20047;-91
2020/12/28 01:22:26;;;;;;;;;;;;;;;5.83;100.00;92189.75;5113703;28;20044;-90
2020/12/28 01:24:52;;;;;;;3.10;1.33;;;;;;;5.88;100.00;92188.13;5113316;28;19924;-90
2020/12/28 01:27:18;;;;;;;1.77;0.43;;;;;;;5.97;100.00;92188.66;5112965;28;20517;-90
2020/12/28 01:29:44;;;;;;;1.83;1.05;;;;;;;6.04;100.00;92195.50;5112990;28;20065;-91
2020/12/28 01:32:10;;;;;;;;;;;;;;;6.07;100.00;92182.38;5113428;28;20044;-90
2020/12/28 01:34:37;;;;;;;1.55;0.55;;;;;;;6.07;100.00;92188.22;5113083;28;19964;-92
2020/12/28 01:37:04;;;;;;;3.15;1.10;;;;;;;6.14;100.00;92178.00;5113251;28;20047;-92
2020/12/28 01:39:30;;;;;;;;;;;;;;;6.13;100.00;92179.00;5113735;28;20059;-90
2020/12/28 01:41:57;;;;;;;1.15;0.60;;;;;;;6.02;100.00;92177.88;5112766;28;19919;-92
2020/12/28 01:44:23;;;;;;;1.95;0.80;;;;;;;6.06;100.00;92171.38;5112709;28;20044;-91
2020/12/28 01:46:49;;;;;;;1.00;0.40;;;;;;;6.14;100.00;92155.84;5112639;28;20130;-90
2020/12/28 01:49:15;;;;;;;;;;;;;;;6.21;100.00;92172.84;5113197;28;20055;-90
2020/12/28 01:51:44;;;;;;;0.93;0.43;;;;;;;6.19;100.00;92169.72;5112740;28;19926;-90
2020/12/28 01:54:11;;;;;;;0.40;0.25;;;;;;;6.20;100.00;92166.97;5112993;28;20040;-90
2020/12/28 01:56:39;;;;;;;0.68;0.35;;;;;;;6.23;100.00;92171.66;5113133;28;20093;-89
2020/12/28 01:59:05;;;;;;;1.77;0.55;;;;;;;6.19;100.00;92174.81;5113172;28;20054;-90
2020/12/28 02:01:39;;;;;;;2.38;0.60;;;;;;;6.21;100.00;92171.06;5112734;28;20093;-89
2020/12/28 02:04:05;;;;;;;1.30;0.57;;;;;;;6.17;100.00;92169.94;5113161;28;20043;-91
2020/12/28 02:06:31;;;;;;;;;;;;;;;6.18;100.00;92170.72;5113182;28;20070;-91
2020/12/28 02:08:58;;;;;;;1.25;0.65;;;;;;;6.13;100.00;92167.03;5112703;28;19927;-90
2020/12/28 02:11:27;;;;;;;1.45;0.50;;;;;;;6.17;100.00;92169.16;5112800;28;20047;-90
2020/12/28 02:13:53;;;;;;;1.20;0.82;;;;;;;6.15;100.00;92169.34;5112258;28;20044;-91
2020/12/28 02:16:19;;;;;;;;;;;;;;;6.22;100.00;92175.19;5113308;28;20444;-89
2020/12/28 02:18:45;;;;;;;1.75;0.77;;;;;;;6.18;100.00;92174.03;5113901;28;19920;-90
2020/12/28 02:21:11;;;;;;;;;;;;;;;6.22;100.00;92180.31;5114595;28;20089;-90
2020/12/28 02:23:41;;;;;;;4.22;1.20;;;;;;;6.01;100.00;92159.22;5112786;28;20317;-90
2020/12/28 02:26:07;;;;;;;5.60;1.95;;;;;;;6.04;100.00;92186.13;5113765;28;20051;-90
2020/12/28 02:28:33;;;;;;;6.25;1.90;;;;;;;5.89;100.00;92191.47;5112381;28;20047;-90
2020/12/28 02:30:59;;;;;;;4.63;1.15;;;;;;;5.87;100.00;92190.88;5112690;28;20062;-90
2020/12/28 02:33:26;;;;;;;;;;;;;;;5.91;100.00;92186.16;5114264;28;20048;-90
2020/12/28 02:35:52;;;;;;;2.42;0.90;;;;;;;5.94;100.00;92185.75;5113810;28;19924;-88
2020/12/28 02:38:18;;;;;;;;;;;;;;;5.91;100.00;92189.50;5113825;28;20075;-88
2020/12/28 02:40:47;;;;;;;1.33;0.70;;;;;;;5.93;100.00;92184.19;5113424;28;20382;-91
2020/12/28 02:43:13;;;;;;;4.40;1.92;;;;;;;5.96;100.00;92187.13;5112988;28;20051;-91
2020/12/28 02:45:40;;;;;;;3.00;1.35;;;;;;;6.06;100.00;92189.22;5113353;28;20048;-90
2020/12/28 02:48:06;;;;;;;;;;;;;;;6.08;100.00;92191.56;5112891;28;20040;-91
2020/12/28 02:50:33;;;;;;;1.77;1.27;;;;;;;5.56;100.00;92128.75;5112043;28;19926;-91
2020/12/28 02:52:59;;;;;;;1.75;0.80;;;;;;;6.06;100.00;92199.41;5113695;28;20089;-91
2020/12/28 02:55:25;;;;;;;3.03;1.15;;;;;;;6.09;100.00;92209.22;5116353;28;20048;-91
2020/12/28 02:57:52;;;;;;;4.25;2.20;;;;;;;6.01;100.00;92179.63;5116224;28;20097;-91
2020/12/28 03:00:18;;;;;;;3.22;1.23;;;;;;;6.02;100.00;92198.25;5115971;28;20040;-88
2020/12/28 03:02:44;;;;;;;;;;;;;;;6.14;100.00;92195.84;5118613;28;20055;-90
2020/12/28 03:05:11;;;;;;;1.92;1.27;;;;;;;6.13;100.00;92201.94;5116471;28;20721;-90
2020/12/28 03:07:37;;;;;;;;;;;;;;;6.07;100.00;92192.56;5118593;28;20048;-91
2020/12/28 03:10:03;;;;;;;3.80;0.93;;;;;;;6.08;100.00;92196.66;5116717;28;20369;-90
2020/12/28 03:12:32;;;;;;;1.77;0.77;;;;;;;6.09;100.00;92191.38;5117456;28;20047;-89
2020/12/28 03:14:59;;;;;;;4.00;1.45;;;;;;;6.12;100.00;92185.06;5117526;28;20083;-89
2020/12/28 03:17:25;;;;;;;1.35;0.55;;;;;;;6.08;100.00;92191.56;5117320;28;20039;-90
2020/12/28 03:19:51;;;;;;;;;;;;;;;6.08;100.00;92191.56;5116612;28;20070;-92
2020/12/28 03:22:17;;;;;;;6.65;2.17;;;;;;;6.05;100.00;92187.66;5115866;28;19927;-90
2020/12/28 03:24:44;;;;;;;1.92;0.95;;;;;;;6.04;100.00;92185.31;5116002;28;20050;-91
2020/12/28 03:27:10;;;;;;;0.63;0.32;;;;;;;6.10;100.00;92187.81;5116384;28;20443;-91
2020/12/28 03:29:36;;;;;;;;;;;;;;;6.13;100.00;92191.72;5115981;28;20505;-90
2020/12/28 03:32:04;;;;;;;2.45;1.73;;;;;;;6.03;100.00;92182.00;5116949;28;19919;-89
2020/12/28 03:34:31;;;;;;;1.58;1.02;;;;;;;6.06;100.00;92191.00;5116255;28;20097;-90
2020/12/28 03:36:57;;;;;;;;;;;;;;;6.08;100.00;92183.94;5116429;28;20047;-88
2020/12/28 03:39:23;;;;;;;1.92;0.82;;;;;;;5.99;100.00;92180.81;5115783;28;19942;-91
2020/12/28 03:41:49;;;;;;;;;;;;;;;5.98;100.00;92182.56;5116125;28;20044;-91
2020/12/28 03:44:15;;;;;;;4.78;1.05;;;;;;;5.79;100.00;92191.16;5115367;28;20309;-89
2020/12/28 03:46:42;;;;;;;4.15;0.98;;;;;;;5.84;100.00;92181.88;5115780;28;20044;-90
2020/12/28 03:49:09;;;;;;;2.10;0.93;;;;;;;5.78;100.00;92192.91;5115199;28;20486;-91
2020/12/28 03:51:35;;;;;;;0.90;0.60;;;;;;;5.81;100.00;92200.16;5115263;28;20047;-90
2020/12/28 03:54:01;;;;;;;;;;;;;;;5.86;100.00;92210.50;5115859;28;20047;-92
2020/12/28 03:56:28;;;;;;;0.70;0.43;;;;;;;5.82;100.00;92206.81;5114951;28;19923;-90
2020/12/28 03:58:54;;;;;;;;;;;;;;;5.77;100.00;92214.28;5115539;28;20075;-91
2020/12/28 04:01:20;;;;;;;2.72;1.45;;;;;;;5.73;100.00;92218.22;5114812;28;20381;-92
2020/12/28 04:03:47;;;;;;;1.73;1.00;;;;;;;5.71;100.00;92222.75;5113660;28;20055;-90
2020/12/28 04:06:14;;;;;;;5.35;1.73;;;;;;;5.74;100.00;92219.78;5114542;28;20055;-91
2020/12/28 04:08:40;;;;;;;6.35;1.30;;;;;;;5.79;100.00;92227.59;5116249;28;20047;-90
2020/12/28 04:11:06;;;;;;;2.92;1.38;;;;;;;5.84;100.00;92230.31;5114772;28;20051;-89
2020/12/28 04:13:33;;;;;;;2.25;1.30;;;;;;;5.87;100.00;92229.13;5114846;28;20040;-90
2020/12/28 04:15:59;;;;;;;;;;;;;;;5.89;100.00;92230.47;5115134;28;20040;-92
2020/12/28 04:18:25;;;;;;;1.30;0.50;;;;;;;5.87;100.00;92236.75;5115713;28;20278;-89
2020/12/28 04:20:51;;;;;;;;;;;;;;;5.92;100.00;92231.06;5115680;28;20044;-89
2020/12/28 04:23:18;;;;;;;1.30;0.80;;;;;;;5.83;100.00;92233.84;5114932;28;19965;-90
2020/12/28 04:25:45;;;;;;;1.10;0.40;;;;;;;5.85;100.00;92226.00;5116386;28;20043;-89
2020/12/28 04:28:11;;;;;;;;;;;;;;;5.95;100.00;92235.75;5114786;28;20039;-90
2020/12/28 04:30:37;;;;;;;0.98;0.40;;;;;;;5.86;100.00;92223.25;5114660;28;20317;-93
2020/12/28 04:33:03;;;;;;;;;;;;;;;5.98;100.00;92233.56;5114872;28;20051;-91
2020/12/28 04:35:29;;;;;;;1.20;0.70;;;;;;;5.94;100.00;92232.44;5114103;28;19950;-90
2020/12/28 04:37:55;;;;;;;;;;;;;;;6.00;100.00;92238.47;5115044;28;20112;-91
2020/12/28 04:40:22;;;;;;;1.58;0.85;;;;;;;5.98;100.00;92236.09;5114173;28;20336;-90
2020/12/28 04:42:49;;;;;;;1.42;0.63;;;;;;;6.03;100.00;92233.00;5113907;28;20073;-91
2020/12/28 04:45:15;;;;;;;3.10;1.20;;;;;;;6.07;100.00;92239.22;5114015;28;20478;-91
2020/12/28 04:47:41;;;;;;;2.10;0.85;;;;;;;6.10;100.00;92235.47;5113749;28;20387;-90
2020/12/28 04:50:07;;;;;;;;;;;;;;;6.27;100.00;92254.41;5114616;28;20059;-92
2020/12/28 04:52:35;;;;;;;2.92;1.48;;;;;;;6.28;100.00;92250.09;5113459;28;19927;-91
2020/12/28 04:55:01;;;;;;;4.28;1.73;;;;;;;6.31;100.00;92238.69;5113724;28;20486;-91
2020/12/28 04:57:29;;;;;;;3.53;1.88;;;;;;;6.35;100.00;92252.59;5113598;28;20426;-91
2020/12/28 04:59:55;;;;;;;7.47;2.35;;;;;;;6.37;100.00;92263.34;5114446;28;20056;-92
2020/12/28 05:02:21;;;;;;;;;;;;;;;6.33;100.00;92264.75;5117115;28;20045;-92
2020/12/28 05:04:48;;;;;;;4.40;2.05;;;;;;;6.32;100.00;92270.84;5116851;28;20366;-92
2020/12/28 05:07:14;;;;;;;5.80;2.10;;;;;;;6.39;100.00;92263.94;5116811;28;20048;-92
2020/12/28 05:09:40;;;;;;;;;;;;;;;6.33;100.00;92263.00;5116037;28;20536;-91
2020/12/28 05:12:07;;;;;;;4.05;1.52;;;;;;;6.34;100.00;92274.75;5113978;28;19920;-90
2020/12/28 05:14:35;;;;;;;2.83;1.08;;;;;;;6.40;100.00;92285.91;5113757;28;20043;-91
2020/12/28 05:17:03;;;;;;;1.42;1.00;;;;;;;6.43;100.00;92290.59;5112740;28;20054;-91
2020/12/28 05:19:29;;;;;;;1.70;1.10;;;;;;;6.48;100.00;92300.97;5113098;28;20051;-91
2020/12/28 05:21:57;;;;;;;4.15;1.42;;;;;;;6.49;100.00;92307.63;5113222;28;20498;-91
2020/12/28 05:24:24;;;;;;;3.03;1.40;;;;;;;6.45;100.00;92309.03;5113246;28;20073;-91
2020/12/28 05:26:50;;;;;;;3.50;1.15;;;;;;;6.52;100.00;92308.97;5113036;28;20101;-90
2020/12/28 05:29:17;;;;;;;;;;;;;;;6.53;100.00;92308.78;5113707;28;20043;-90
2020/12/28 05:31:45;;;;;;;10.57;4.65;;;;;;;6.48;100.00;92310.41;5112983;28;19920;-90
2020/12/28 05:34:16;;;;;;;3.30;1.63;;;;;;;6.36;100.00;92308.50;5113180;28;20048;-90
2020/12/28 05:36:45;;;;;;;2.90;1.63;;;;;;;6.27;100.00;92314.84;5112842;28;20051;-91
2020/12/28 05:39:15;;;;;;;2.60;1.02;;;;;;;6.19;100.00;92304.84;5113358;28;20043;-90
2020/12/28 05:41:51;;;;;;;4.10;1.45;;;;;;;6.18;100.00;92293.91;5113354;28;20044;-92
2020/12/28 05:44:18;;;;;;;2.00;1.10;;;;;;;6.27;100.00;92307.97;5113079;28;20058;-92
2020/12/28 05:46:49;;;;;;;;;;;;;;;6.23;100.00;92296.63;5113093;28;20047;-88
2020/12/28 05:49:20;;;;;;;1.55;1.17;;;;;;;6.15;100.00;92301.94;5112527;28;19920;-90
2020/12/28 05:51:46;;;;;;;2.22;0.90;;;;;;;6.24;100.00;92310.91;5112749;28;20482;-89
2020/12/28 05:54:12;;;;;;;;;;;;;;;6.22;100.00;92315.47;5113404;28;20056;-91
2020/12/28 05:56:43;;;;;;;2.95;1.73;;;;;;;6.20;100.00;92321.75;5112124;28;19920;-91
2020/12/28 05:59:12;;;;;;;3.10;1.95;;;;;;;6.19;100.00;92323.50;5112206;28;20043;-90
2020/12/28 06:01:43;;;;;;;4.32;1.60;;;;;;;6.22;100.00;92332.50;5112691;28;20093;-91
2020/12/28 06:04:14;;;;;;;1.80;0.57;;;;;;;6.23;100.00;92337.41;5112380;28;20134;-90
2020/12/28 06:06:42;;;;;;;2.88;0.60;;;;;;;6.16;100.00;92323.94;5112776;28;20130;-90
2020/12/28 06:09:09;;;;;;;2.17;1.20;;;;;;;6.28;100.00;92336.78;5115897;28;20179;-88
2020/12/28 06:11:36;;;;;;;1.95;0.93;;;;;;;6.27;100.00;92333.47;5112917;28;20054;-89
2020/12/28 06:14:15;;;;;;;2.33;1.33;;;;;;;6.37;100.00;92333.03;5114726;28;20143;-88
2020/12/28 06:16:42;;;;;;;2.60;1.05;;;;;;;6.42;100.00;92342.59;5112542;28;20063;-89
2020/12/28 06:19:20;;;;;;;3.50;1.60;;;;;;;6.41;100.00;92348.69;5111782;28;20058;-89
2020/12/28 06:21:46;;;;;;;2.15;0.90;;;;;;;6.43;100.00;92340.84;5112693;28;20048;-89
2020/12/28 06:24:13;;;;;;;5.68;1.30;;;;;;;6.49;100.00;92335.69;5114619;28;20047;-89
2020/12/28 06:26:39;;;;;;;;;;;;;;;6.49;100.00;92340.78;5114654;28;20050;-89
2020/12/28 06:29:06;;;;;;;2.88;1.05;;;;;;;6.52;100.00;92339.59;5112094;28;19981;-90
2020/12/28 06:31:34;;;;;;;2.00;1.20;;;;;;;6.49;100.00;92340.03;5112173;28;20061;-88
2020/12/28 06:34:01;;;;;;;3.60;1.65;;;;;;;6.59;100.00;92345.47;5112076;28;20398;-89
2020/12/28 06:36:28;;;;;;;2.70;1.23;;;;;;;6.59;100.00;92339.56;5111319;28;20050;-90
2020/12/28 06:38:55;;;;;;;4.95;1.88;;;;;;;6.70;100.00;92356.75;5111261;28;20088;-89
2020/12/28 06:41:26;;;;;;;2.90;1.13;;;;;;;6.72;100.00;92357.34;5111501;28;20417;-91
2020/12/28 06:43:54;;;;;;;2.65;1.73;;;;;;;6.70;100.00;92361.88;5111422;28;20044;-90
2020/12/28 06:46:23;;;;;;;2.92;1.17;;;;;;;6.86;100.00;92380.22;5111665;28;20486;-88
2020/12/28 06:48:50;;;;;;;3.55;0.98;;;;;;;6.91;100.00;92388.81;5111149;28;20122;-90
2020/12/28 06:51:16;;;;;;;4.10;1.83;;;;;;;6.92;100.00;92387.84;5110998;28;20051;-90
2020/12/28 06:53:43;;;;;;;5.95;1.55;;;;;;;6.89;100.00;92385.69;5111267;28;20043;-90
2020/12/28 06:56:11;;;;;;;4.53;1.98;;;;;;;6.99;100.00;92389.56;5111284;28;20044;-90
2020/12/28 06:58:38;;;;;;;2.75;1.40;;;;;;;7.02;100.00;92386.59;5111245;28;20055;-90
2020/12/28 07:01:05;;;;;;;3.95;1.30;;;;;;;6.92;100.00;92369.97;5111574;28;20048;-90
2020/12/28 07:03:32;;;;;;;3.05;1.15;;;;;;;7.02;100.00;92384.03;5112406;28;20048;-91
2020/12/28 07:05:59;;;;;;;2.72;1.20;;;;;;;7.12;100.00;92392.00;5111533;28;20054;-91
2020/12/28 07:08:27;;;;;;;2.15;1.35;;;;;;;7.11;100.00;92377.69;5111445;28;20456;-90
2020/12/28 07:10:58;;;;;;;19.67;9.32;;;;;;;6.93;100.00;92374.09;5111221;28;20051;-90
2020/12/28 07:13:24;;;;;;;8.60;4.05;;;;;;;6.90;100.00;92366.06;5111766;28;20048;-90
2020/12/28 07:15:50;;;;;;;;;;;;;;;6.90;100.00;92378.81;5111792;28;20039;-90
2020/12/28 07:18:19;;;;;;;1.90;1.13;;;;;;;6.82;100.00;92374.75;5111056;28;19947;-90
2020/12/28 07:20:54;;;;;;;2.13;1.05;;;;;;;6.62;100.00;92331.50;5110864;28;20097;-89
2020/12/28 07:23:23;;;;;;;4.90;2.20;;;;;;;6.66;100.00;92358.94;5112142;28;20048;-90
2020/12/28 07:25:49;;;;;;;3.28;2.25;;;;;;;6.71;100.00;92350.66;5112367;28;20043;-89
2020/12/28 07:28:16;;;;;;;;;;;;;;;6.62;100.00;92352.69;5113494;28;20047;-89
2020/12/28 07:30:42;;;;;;;2.03;1.15;;;;;;;6.63;100.00;92361.91;5111800;28;19919;-90
2020/12/28 07:33:09;;;;;;;;;;;;;;;6.74;100.00;92367.34;5113996;28;20452;-89
2020/12/28 07:35:35;;;;;;;3.13;1.83;;;;;;;6.85;100.00;92368.44;5112612;28;19920;-91
2020/12/28 07:38:05;;;;;;;;;;;;;;;7.00;100.00;92373.25;5112163;28;20495;-89
2020/12/28 07:40:31;;;;;;;2.80;1.60;;;;;;;7.06;100.00;92367.31;5114926;28;20395;-90
2020/12/28 07:42:57;;;;;;;;;;;;;;;7.13;100.00;92375.69;5114651;28;20040;-90
2020/12/28 07:45:25;;;;;;;2.08;0.82;;;;;;;6.99;100.00;92385.22;5101032;28;19931;-91
2020/12/28 07:47:54;;;;;;;3.85;1.10;;;;;;;6.97;100.00;92388.97;5099056;27;20077;-89
2020/12/28 07:50:22;;;;;;;4.13;1.30;;;;;;;6.91;100.00;92388.03;5095049;28;20094;-91
2020/12/28 07:52:55;;;;;;;1.83;1.00;;;;;;;6.79;100.00;92380.25;5093210;28;20044;-91
2020/12/28 07:55:25;;;;;;;0.88;0.70;;;;;;;6.70;100.00;92379.72;5094798;28;21041;-90
2020/12/28 07:58:02;;;;;;;1.33;0.88;;;;;;;6.77;100.00;92377.91;5094962;28;20540;-90
2020/12/28 08:00:34;;;;;;;2.90;0.60;;;;;;;6.92;100.00;92387.84;5094097;28;20430;-90
2020/12/28 08:03:12;;;;;;;1.95;0.95;;;;;;;7.01;100.00;92382.47;5094357;28;20387;-91
2020/12/28 08:05:39;;;;;;;1.10;0.70;;;;;;;7.09;100.00;92379.69;5093940;28;20040;-91
2020/12/28 08:08:05;;;;;;;1.92;0.98;;;;;;;7.29;100.00;92386.38;5093783;28;20047;-90
2020/12/28 08:10:31;;;;;;;;;;;;;;;7.31;100.00;92374.97;5094514;28;20047;-92
2020/12/28 08:12:59;;;;;;;;;;;;;;;7.35;100.00;92376.09;5095113;28;19965;-91
2020/12/28 08:15:30;;;;;;;5.88;1.35;;;;;;;7.36;100.00;92384.53;5096468;28;19920;-91
2020/12/28 08:18:08;;;;;;;42.08;14.75;;;;;;;7.55;99.50;92379.47;5095162;28;20050;-92
2020/12/28 08:20:34;;;;;;;8.43;1.85;;;;;;;7.51;98.08;92375.78;5094071;28;20510;-90
2020/12/28 08:23:01;;;;;;;6.32;3.28;;;;;;;7.48;99.19;92366.75;5093597;28;20055;-91
2020/12/28 08:25:27;;;;;;;;;;;;;;;7.62;98.70;92370.75;5094568;28;20055;-92
2020/12/28 08:27:54;;;;;;;10.27;4.55;;;;;;;7.62;97.08;92357.97;5093351;28;19924;-92
2020/12/28 08:30:21;;;;;;;8.15;2.72;;;;;;;7.93;96.99;92370.03;5093584;28;20059;-90
2020/12/28 08:32:48;;;;;;;;;;;;;;;8.05;95.65;92362.44;5094126;28;20040;-92
2020/12/28 08:35:15;;;;;;;43.00;16.58;;;;;;;8.23;95.97;92359.84;5093448;28;19931;-89
2020/12/28 08:37:46;;;;;;;;;;;;;;;8.38;93.67;92374.06;5093749;28;20047;-90
2020/12/28 08:40:17;;;;;;;175.80;60.92;;;;;;;8.31;92.23;92369.00;5093835;28;19920;-89
2020/12/28 08:42:43;;;;;;;75.25;33.42;;;;;;;8.15;91.82;92345.59;5093134;28;20048;-91
2020/12/28 08:45:19;;;;;;;11.40;4.88;;;;;;;8.11;92.93;92367.47;5092863;28;20161;-91
2020/12/28 08:47:45;;;;;;;48.03;17.33;;;;;;;8.05;91.98;92354.78;5093161;28;20056;-89
2020/12/28 08:50:12;;;;;;;;;;;;;;;7.83;93.28;92343.19;5106672;28;20700;-89
2020/12/28 08:52:48;;;;;;;14.00;6.95;;;;;;;7.72;94.06;92346.47;5113629;28;20420;-88
2020/12/28 08:55:14;;;;;;;11.32;4.88;;;;;;;7.81;95.10;92344.41;5113358;28;20073;-89
2020/12/28 08:57:40;;;;;;;;;;;;;;;7.87;93.60;92335.91;5113805;28;20070;-93
2020/12/28 09:00:08;;;;;;;36.78;16.33;;;;;;;7.86;93.92;92324.88;5113050;28;19919;-88
2020/12/28 09:02:37;;;;;;;15.88;7.35;;;;;;;8.04;94.51;92336.06;5113001;28;20167;-88
2020/12/28 09:05:04;;;;;;;2.80;1.50;;;;;;;8.18;93.43;92318.03;5113142;28;20072;-88
2020/12/28 09:07:31;;;;;;;14.18;7.25;;;;;;;8.39;93.75;92329.56;5112863;28;20055;-88
2020/12/28 09:09:57;;;;;;;8.93;5.15;;;;;;;8.43;92.81;92317.88;5112920;28;20051;-89
2020/12/28 09:12:23;;;;;;;10.63;4.72;;;;;;;8.47;91.79;92319.00;5113189;28;20040;-90
2020/12/28 09:14:49;;;;;;;;;;;;;;;8.46;91.54;92319.22;5113212;28;20043;-88
2020/12/28 09:17:16;;;;;;;3.97;2.03;;;;;;;8.37;92.11;92322.09;5112620;28;19926;-87
2020/12/28 09:19:42;;;;;;;;;;;;;;;8.55;92.09;92317.94;5113087;28;20051;-90
2020/12/28 09:22:08;;;;;;;6.18;1.40;;;;;;;8.65;90.37;92320.75;5112917;28;20377;-88
2020/12/28 09:24:35;;;;;;;;;;;;;;;8.85;88.87;92316.31;5113216;28;20051;-89
2020/12/28 09:27:01;;;;;;;8.52;3.70;;;;;;;9.00;89.56;92315.88;5112657;28;20405;-90
2020/12/28 09:29:27;;;;;;;;;;;;;;;9.14;88.47;92313.88;5112711;28;20070;-90
2020/12/28 09:31:54;;;;;;;21.77;8.63;;;;;;;9.12;89.04;92287.72;5113092;28;19964;-88
2020/12/28 09:34:20;;;;;;;;;;;;;;;9.28;86.07;92301.63;5113162;28;20048;-91
2020/12/28 09:36:46;;;;;;;36.03;12.05;;;;;;;9.30;86.76;92317.59;5112826;28;20324;-89
2020/12/28 09:39:12;;;;;;;14.43;5.82;;;;;;;9.29;85.40;92308.31;5112011;28;20051;-91
2020/12/28 09:41:39;;;;;;;;;;;;;;;9.26;85.13;92296.72;5112531;28;20054;-89
2020/12/28 09:44:05;;;;;;;2.78;0.63;;;;;;;9.23;84.54;92297.19;5111789;28;19924;-90
2020/12/28 09:46:32;;;;;;;;;;;;;;;9.25;84.74;92295.16;5112921;28;20051;-87
2020/12/28 09:48:58;;;;;;;24.17;7.97;;;;;;;9.38;83.32;92283.13;5112096;28;19927;-87
2020/12/28 09:51:24;;;;;;;;;;;;;;;9.40;82.81;92281.13;5111518;28;20047;-88
2020/12/28 09:53:50;;;;;;;14.13;6.07;;;;;;;9.28;84.30;92274.25;5111469;28;19931;-89
2020/12/28 09:56:16;;;;;;;11.68;5.03;;;;;;;9.38;81.83;92288.25;5111349;28;20039;-88
2020/12/28 09:58:43;;;;;;;;;;;;;;;9.38;83.06;92278.00;5111586;28;20070;-90
2020/12/28 10:01:10;;;;;;;7.13;1.90;;;;;;;9.11;81.82;92278.47;5108419;28;20294;-89
2020/12/28 10:03:37;;;;;;;26.55;7.07;;;;;;;9.18;81.85;92279.94;5111356;28;20063;-87
2020/12/28 10:06:30;;;;;;;9.20;2.55;;;;;;;9.18;83.43;92274.00;5111128;28;20059;-88
2020/12/28 10:08:50;;;;;;;10.50;3.47;;;;;;;9.28;81.52;92270.88;5108230;28;20517;-89
2020/12/28 10:11:16;;;;;;;20.23;6.68;;;;;;;9.27;81.58;92262.44;5110756;28;20086;-89
2020/12/28 10:13:46;;;;;;;28.25;8.68;;;;;;;9.39;80.40;92246.25;5113277;28;20097;-86
2020/12/28 10:16:12;;;;;;;26.20;8.43;;;;;;;9.56;79.61;92259.94;5108567;28;20040;-88
2020/12/28 10:18:42;;;;;;;;;;;;;;;9.61;79.39;92252.34;5111300;28;20082;-90
2020/12/28 10:21:11;;;;;;;20.17;6.00;;;;;;;9.57;80.00;92256.34;5111017;28;20369;-87
2020/12/28 10:23:39;;;;;;;24.90;7.75;;;;;;;9.58;78.24;92263.03;5110466;28;20813;-88
2020/12/28 10:26:06;;;;;;;11.18;4.85;;;;;;;9.72;78.83;92247.41;5110701;28;20067;-87
2020/12/28 10:28:34;;;;;;;8.57;2.10;;;;;;;9.77;79.49;92247.50;5111001;28;20081;-89
2020/12/28 10:31:01;;;;;;;5.90;1.48;;;;;;;9.86;76.28;92228.16;5111442;28;20066;-87
2020/12/28 10:33:27;;;;;;;6.30;1.75;;;;;;;9.90;77.38;92231.03;5110796;28;20048;-88
2020/12/28 10:35:53;;;;;;;;;;;;;;;9.83;76.54;92220.16;5111008;28;20490;-91
2020/12/28 10:38:20;;;;;;;24.27;7.63;;;;;;;9.79;76.55;92235.22;5110835;28;19920;-87
2020/12/28 10:40:46;;;;;;;;;;;;;;;9.78;76.33;92230.31;5111518;28;20109;-87
2020/12/28 10:43:12;;;;;;;2.70;1.55;;;;;;;9.69;75.72;92230.69;5111519;28;19926;-87
2020/12/28 10:45:38;;;;;;;;;;;;;;;9.78;77.29;92213.16;5112067;28;20044;-87
2020/12/28 10:48:05;;;;;;;1.10;0.60;;;;;;;9.65;75.83;92203.94;5111537;28;19920;-86
2020/12/28 10:50:32;;;;;;;4.55;2.28;;;;;;;9.92;77.25;92212.88;5111194;28;20058;-87
2020/12/28 10:52:58;;;;;;;6.78;2.10;;;;;;;9.96;75.35;92221.66;5106263;28;20039;-89
2020/12/28 10:55:24;;;;;;;9.18;3.50;;;;;;;10.18;77.10;92238.97;5110581;28;20047;-89
2020/12/28 10:57:50;;;;;;;;;;;;;;;10.23;73.31;92226.22;5111961;28;20058;-91
2020/12/28 11:00:17;;;;;;;10.98;3.83;;;;;;;10.16;73.11;92236.63;5111865;28;19920;-89
2020/12/28 11:02:43;;;;;;;;;;;;;;;10.06;75.49;92229.53;5112723;28;20047;-88
2020/12/28 11:05:10;;;;;;;3.72;1.85;;;;;;;9.93;75.82;92207.50;5111402;28;19919;-89
2020/12/28 11:07:36;;;;;;;7.68;1.55;;;;;;;10.09;75.63;92226.50;5110983;28;20051;-88
2020/12/28 11:10:03;;;;;;;2.45;1.42;;;;;;;9.89;76.14;92212.31;5111202;28;20409;-86
2020/12/28 11:12:30;;;;;;;2.45;1.17;;;;;;;9.76;76.09;92215.16;5091229;28;20461;-87
2020/12/28 11:14:56;;;;;;;;;;;;;;;9.84;76.98;92225.06;5093966;28;20494;-88
2020/12/28 11:17:22;;;;;;;9.88;2.78;;;;;;;9.65;76.96;92203.94;5094396;28;19920;-88
2020/12/28 11:19:48;;;;;;;;;;;;;;;9.74;76.02;92202.56;5094845;28;20494;-88
2020/12/28 11:22:15;;;;;;;1.42;0.80;;;;;;;9.78;74.73;92218.28;5094589;28;19926;-87
2020/12/28 11:24:42;;;;;;;1.83;1.05;;;;;;;9.85;73.57;92216.34;5094697;28;20048;-88
2020/12/28 11:27:10;;;;;;;;;;;;;;;9.86;72.65;92207.63;5094959;28;20086;-87
2020/12/28 11:29:36;;;;;;;3.45;1.02;;;;;;;9.83;71.15;92197.06;5094415;28;19927;-88
2020/12/28 11:32:02;;;;;;;;;;;;;;;9.78;70.86;92214.94;5094797;28;20060;-87
2020/12/28 11:34:28;;;;;;;4.30;1.23;;;;;;;9.84;71.47;92217.38;5094158;28;20393;-87
2020/12/28 11:36:54;;;;;;;2.05;1.45;;;;;;;9.79;71.33;92212.13;5094207;28;20483;-87
2020/12/28 11:39:21;;;;;;;;;;;;;;;9.89;70.68;92219.22;5100471;28;20048;-84
2020/12/28 11:41:48;;;;;;;1.05;0.50;;;;;;;9.88;71.29;92225.38;5104209;28;19920;-88
2020/12/28 11:44:15;;;;;;;;;;;;;;;9.97;71.65;92231.69;5094670;28;20407;-90
2020/12/28 11:46:42;;;;;;;4.15;2.25;;;;;;;9.83;71.90;92192.72;5094754;28;19927;-89
2020/12/28 11:49:08;;;;;;;1.35;0.57;;;;;;;10.22;71.40;92222.88;5114371;28;20054;-87
2020/12/28 11:51:37;;;;;;;1.35;0.60;;;;;;;10.26;70.07;92216.28;5114479;28;20040;-88